Time;durP1;ratioP1;P1;durP2;ratioP2;P2;SDS_P1;SDS_P2;PMS_P1;PMS_P2;Temp;Humidity;BMP_temperature;BMP_pressure;BME280_temperature;BME280_humidity;BME280_pressure;Samples;Min_cycle;Max_cycle;Signal;HPM_P1;HPM_P2
2023/06/20 00:01:10;;;;;;;11.20;10.10;;;;;;;21.48;73.64;101098.81;5046414;23;20341;-59
2023/06/20 00:03:36;;;;;;;11.38;10.27;;;;;;;21.48;72.61;101096.16;5029615;23;21689;-59
2023/06/20 00:06:01;;;;;;;11.13;10.02;;;;;;;21.48;72.88;101101.44;5233034;23;20031;-59
2023/06/20 00:08:26;;;;;;;11.75;10.55;;;;;;;21.43;73.04;101100.66;4816063;29;20057;-59
2023/06/20 00:10:52;;;;;;;11.90;10.70;;;;;;;21.43;74.22;101095.34;4814939;29;20486;-58
2023/06/20 00:15:48;;;;;;;11.30;10.02;;;;;;;21.40;73.42;101092.75;4925396;23;21137;-59
2023/06/20 00:20:46;;;;;;;11.52;10.35;;;;;;;21.36;73.91;101087.50;5232719;23;20024;-58
2023/06/20 00:23:11;;;;;;;10.88;9.77;;;;;;;21.35;73.93;101091.03;4856560;29;20268;-59
2023/06/20 00:28:08;;;;;;;10.63;9.55;;;;;;;21.29;73.21;101085.88;5120520;23;20073;-59
2023/06/20 00:30:33;;;;;;;11.15;10.00;;;;;;;21.29;74.50;101091.16;4955573;23;20061;-59
2023/06/20 00:35:29;;;;;;;10.77;9.68;;;;;;;21.30;74.01;101086.72;4920856;23;20065;-58
2023/06/20 00:37:54;;;;;;;10.95;9.55;;;;;;;21.32;75.01;101091.09;4949745;23;1066527;-59
2023/06/20 00:40:19;;;;;;;11.60;9.90;;;;;;;21.30;73.39;101084.06;5156722;23;20427;-59
2023/06/20 00:42:45;;;;;;;11.25;10.15;;;;;;;21.30;73.46;101087.59;5045559;23;20885;-59
2023/06/20 00:47:48;;;;;;;11.00;9.80;;;;;;;21.31;75.15;101085.84;5127443;23;20071;-59
2023/06/20 00:50:14;;;;;;;10.38;9.38;;;;;;;21.25;73.36;101084.16;5138940;23;20066;-59
2023/06/20 00:55:13;;;;;;;11.27;10.00;;;;;;;21.18;74.79;101082.50;5089270;23;20065;-59
2023/06/20 00:57:41;;;;;;;11.65;10.45;;;;;;;21.08;74.30;101079.13;4855909;29;21076;-59
2023/06/20 01:00:12;;;;;;;11.73;10.57;;;;;;;21.07;74.37;101079.16;5012927;23;20081;-59
2023/06/20 01:05:06;;;;;;;11.20;10.18;;;;;;;21.04;74.63;101071.25;4926226;23;20064;-59
2023/06/20 01:07:58;;;;;;;11.77;10.57;;;;;;;21.02;74.54;101063.34;5164596;23;20068;-58
2023/06/20 01:10:56;;;;;;;11.27;10.05;;;;;;;20.99;74.43;101066.03;5000177;23;20053;-59
2023/06/20 01:13:52;;;;;;;11.65;10.45;;;;;;;20.96;74.02;101061.66;5017747;23;20069;-59
2023/06/20 01:21:46;;;;;;;12.23;11.13;;;;;;;20.98;73.64;101064.28;5117549;23;20076;-59
2023/06/20 01:24:37;;;;;;;11.75;10.63;;;;;;;20.99;74.38;101063.41;5037955;23;20052;-59
2023/06/20 01:27:18;;;;;;;11.65;10.45;;;;;;;20.96;73.64;101066.09;5168312;23;20262;-58
2023/06/20 01:32:23;;;;;;;11.73;10.63;;;;;;;20.92;73.54;101057.31;4946156;23;20045;-58
2023/06/20 01:34:54;;;;;;;12.27;11.07;;;;;;;20.91;74.79;101058.19;5031009;23;20028;-59
2023/06/20 01:37:22;;;;;;;11.73;10.55;;;;;;;20.90;74.91;101059.13;5027783;23;20053;-59
2023/06/20 01:39:55;;;;;;;12.30;10.95;;;;;;;20.90;74.63;101050.28;4857612;29;20037;-59
2023/06/20 01:44:51;;;;;;;11.27;10.18;;;;;;;20.86;73.41;101052.13;5122330;23;20328;-59
2023/06/20 01:49:54;;;;;;;11.65;10.45;;;;;;;20.77;72.98;101042.53;5021634;23;20053;-59
2023/06/20 01:52:20;;;;;;;12.07;10.95;;;;;;;20.73;72.76;101038.19;5013419;23;20425;-59
2023/06/20 01:57:21;;;;;;;12.20;11.00;;;;;;;20.75;71.69;101030.22;5063192;23;20121;-59
2023/06/20 01:59:47;;;;;;;12.10;10.93;;;;;;;20.72;73.31;101030.28;5185628;23;20132;-58
2023/06/20 02:04:38;;;;;;;12.93;11.63;;;;;;;20.69;73.95;101036.47;5090483;23;20061;-58
2023/06/20 02:09:42;;;;;;;12.38;11.18;;;;;;;20.65;73.59;101030.34;5027963;23;20057;-58
2023/06/20 02:12:09;;;;;;;12.73;11.43;;;;;;;20.63;73.51;101026.81;5004421;23;21024;-58
2023/06/20 02:17:12;;;;;;;12.45;11.25;;;;;;;20.55;73.92;101023.44;5052514;23;20719;-58
2023/06/20 02:19:38;;;;;;;12.05;10.85;;;;;;;20.50;73.24;101020.84;5045168;23;20560;-58
2023/06/20 02:24:34;;;;;;;12.30;11.10;;;;;;;20.46;73.00;101027.06;5067065;23;20123;-58
2023/06/20 02:27:02;;;;;;;11.45;10.35;;;;;;;20.38;72.93;101018.38;4978380;23;20141;-60
2023/06/20 02:29:31;;;;;;;12.32;11.13;;;;;;;20.39;72.62;101021.91;4838527;29;20032;-60
2023/06/20 02:34:31;;;;;;;12.35;11.02;;;;;;;20.39;73.57;101021.91;4832245;29;20058;-58
2023/06/20 02:36:59;;;;;;;11.93;10.73;;;;;;;20.30;72.31;101037.00;5000892;23;20063;-58
2023/06/20 02:41:54;;;;;;;11.70;10.50;;;;;;;20.29;74.42;101022.03;5070125;23;20732;-58
2023/06/20 02:44:19;;;;;;;10.82;9.73;;;;;;;20.29;72.88;101023.78;4857222;29;20025;-58
2023/06/20 02:47:10;;;;;;;10.70;9.65;;;;;;;20.28;72.14;101027.34;4854633;29;20033;-58
2023/06/20 02:49:47;;;;;;;11.13;10.02;;;;;;;20.20;72.42;101022.16;5024128;23;20212;-58
2023/06/20 02:52:26;;;;;;;11.02;9.93;;;;;;;20.16;72.98;101023.09;4849864;29;20511;-58
2023/06/20 03:00:22;;;;;;;11.05;9.93;;;;;;;20.20;73.99;101023.94;5132416;23;21073;-58
2023/06/20 03:02:55;;;;;;;12.48;10.77;;;;;;;20.10;72.02;101024.06;4855833;29;20037;-58
2023/06/20 03:05:22;;;;;;;11.38;10.27;;;;;;;20.06;73.83;101018.81;5014037;23;20837;-58
2023/06/20 03:07:48;;;;;;;11.70;10.60;;;;;;;19.97;72.84;101023.34;4927549;23;20087;-58
2023/06/20 03:10:14;;;;;;;11.90;10.70;;;;;;;19.94;72.95;101025.13;5114441;23;20024;-58
2023/06/20 03:12:40;;;;;;;12.10;10.80;;;;;;;19.97;74.20;101018.03;5025074;23;20441;-58
2023/06/20 03:15:05;;;;;;;12.38;11.18;;;;;;;19.98;73.45;101022.41;4856255;29;20521;-58
2023/06/20 03:17:35;;;;;;;12.95;11.68;;;;;;;20.00;73.77;101003.03;5025178;23;20023;-58
2023/06/20 03:20:00;;;;;;;;;;;;;;;20.03;72.03;101009.16;4834082;29;20061;-58
2023/06/20 03:22:25;;;;;;;12.20;10.90;;;;;;;20.01;72.70;101010.94;4833478;29;20019;-58
2023/06/20 03:27:19;;;;;;;11.88;10.77;;;;;;;20.01;73.57;101002.13;5029538;23;20425;-58
2023/06/20 03:29:45;;;;;;;11.50;10.40;;;;;;;19.98;72.79;101009.19;5014482;23;20065;-59
2023/06/20 03:32:10;;;;;;;12.27;11.07;;;;;;;19.95;72.87;101013.66;5015314;23;20120;-58
2023/06/20 03:34:35;;;;;;;11.80;10.70;;;;;;;19.95;73.03;101014.53;4856487;29;20502;-58
2023/06/20 03:37:01;;;;;;;12.23;10.98;;;;;;;19.96;73.00;101021.56;5204483;23;20036;-58
2023/06/20 03:39:26;;;;;;;12.53;10.67;;;;;;;19.88;72.76;101026.06;4859645;29;20093;-58
2023/06/20 03:41:51;;;;;;;12.20;11.07;;;;;;;19.88;72.96;101022.56;5117809;23;20393;-59
2023/06/20 03:44:16;;;;;;;11.73;10.52;;;;;;;19.87;72.85;101029.63;5081344;23;20061;-58
2023/06/20 03:46:42;;;;;;;12.33;11.13;;;;;;;19.86;73.16;101029.66;5051716;23;20150;-58
2023/06/20 03:54:13;;;;;;;12.90;11.70;;;;;;;19.89;72.70;101043.69;5037195;23;20060;-58
2023/06/20 03:56:38;;;;;;;12.55;11.35;;;;;;;19.91;73.60;101051.63;5127847;23;20080;-58
2023/06/20 03:59:04;;;;;;;12.00;10.88;;;;;;;19.93;73.50;101049.84;4996284;23;21339;-58
2023/06/20 04:01:29;;;;;;;12.07;10.95;;;;;;;19.96;72.38;101055.97;5161546;23;20076;-58
2023/06/20 04:03:54;;;;;;;12.40;11.00;;;;;;;19.98;72.87;101054.16;5048752;23;20050;-58
2023/06/20 04:08:52;;;;;;;12.45;11.25;;;;;;;19.95;72.80;101056.84;4940247;23;20064;-58
2023/06/20 04:11:17;;;;;;;11.52;10.32;;;;;;;19.92;74.14;101059.53;5013090;23;20061;-58
2023/06/20 04:13:42;;;;;;;12.80;11.52;;;;;;;19.88;73.67;101057.81;4858526;29;20446;-58
2023/06/20 04:21:11;;;;;;;11.77;10.60;;;;;;;19.80;73.90;101038.53;5098212;23;20036;-58
2023/06/20 04:23:37;;;;;;;11.77;10.60;;;;;;;19.79;74.69;101039.41;4982969;23;20058;-58
2023/06/20 04:26:03;;;;;;;12.25;11.05;;;;;;;19.76;75.34;101034.13;5013556;23;20028;-58
2023/06/20 04:31:03;;;;;;;11.88;10.63;;;;;;;19.54;71.94;101022.94;4843239;29;20061;-60
2023/06/20 04:33:28;;;;;;;11.35;10.32;;;;;;;19.44;74.09;101014.22;5232218;23;20068;-58
2023/06/20 04:35:57;;;;;;;12.48;11.20;;;;;;;19.34;76.59;101020.50;5062123;23;20512;-58
2023/06/20 04:38:22;;;;;;;12.68;11.43;;;;;;;19.22;76.67;101025.00;4852846;29;20049;-58
2023/06/20 04:40:48;;;;;;;12.90;11.45;;;;;;;19.21;78.96;101028.53;4996836;23;20189;-58
2023/06/20 04:48:16;;;;;;;;;;;;;;;19.34;75.81;101020.50;4973617;23;20141;-58
2023/06/20 04:50:41;;;;;;;12.30;11.10;;;;;;;19.39;78.26;101016.91;5006290;23;19924;-58
2023/06/20 04:55:38;;;;;;;;;;;;;;;19.54;75.75;101015.88;5248600;23;20031;-58
2023/06/20 04:58:04;;;;;;;13.68;12.38;;;;;;;19.58;79.05;101019.34;5185077;23;19982;-58
2023/06/20 05:00:30;;;;;;;13.20;11.90;;;;;;;19.64;78.68;101012.22;4928705;23;20015;-58
2023/06/20 05:02:58;;;;;;;14.80;13.38;;;;;;;19.66;78.86;101019.28;4954111;23;20045;-58
2023/06/20 05:05:23;;;;;;;13.98;12.57;;;;;;;19.68;79.23;101010.41;4847929;29;20149;-58
2023/06/20 05:07:49;;;;;;;14.32;12.95;;;;;;;19.73;78.33;101007.75;5027992;23;20766;-58
2023/06/20 05:10:14;;;;;;;14.32;12.82;;;;;;;19.74;78.41;101007.72;4853582;29;20037;-58
2023/06/20 05:12:39;;;;;;;15.38;13.88;;;;;;;19.82;81.22;101001.50;5025870;23;20065;-58
2023/06/20 05:15:05;;;;;;;15.38;13.88;;;;;;;19.81;81.21;101003.25;5021257;23;20665;-58
2023/06/20 05:17:30;;;;;;;13.15;11.85;;;;;;;19.86;76.87;100997.94;5115073;23;20045;-58
2023/06/20 05:19:56;;;;;;;16.05;13.93;;;;;;;19.96;80.09;100995.13;5039328;23;20513;-58
2023/06/20 05:22:21;;;;;;;15.73;13.95;;;;;;;20.04;79.70;100989.72;4999064;23;20155;-58
2023/06/20 05:27:17;;;;;;;16.83;14.27;;;;;;;20.20;80.17;100995.69;4850436;29;20526;-58
2023/06/20 05:29:43;;;;;;;16.48;14.85;;;;;;;20.31;78.26;100996.41;5185719;23;20064;-58
2023/06/20 05:32:08;;;;;;;14.52;13.02;;;;;;;20.45;79.14;100979.44;4882450;23;1186901;-58
2023/06/20 05:34:34;;;;;;;16.83;14.32;;;;;;;20.56;81.59;100979.28;5040195;23;20137;-58
2023/06/20 05:39:29;;;;;;;11.18;10.10;;;;;;;20.76;77.92;100966.63;4954244;23;20939;-59
2023/06/20 05:41:56;;;;;;;14.50;11.93;;;;;;;20.84;75.36;100970.03;5009586;23;20138;-58
2023/06/20 05:44:21;;;;;;;12.20;10.82;;;;;;;20.96;75.61;100965.44;5064731;23;20077;-58
2023/06/20 05:46:47;;;;;;;12.13;10.60;;;;;;;21.06;76.48;100964.38;5083831;23;20076;-58
2023/06/20 05:49:14;;;;;;;9.80;8.80;;;;;;;21.22;76.13;100972.00;5173968;23;21222;-58
2023/06/20 05:54:15;;;;;;;7.65;6.60;;;;;;;21.42;76.14;100969.88;5064635;23;20132;-58
2023/06/20 05:56:40;;;;;;;7.07;6.38;;;;;;;21.50;74.05;100972.38;4952599;23;20152;-59
2023/06/20 05:59:06;;;;;;;8.55;7.20;;;;;;;21.58;75.69;100975.78;4837011;29;20029;-59
2023/06/20 06:01:31;;;;;;;7.28;6.57;;;;;;;21.65;75.15;100980.06;4837506;29;20403;-58
2023/06/20 06:03:56;;;;;;;7.90;6.78;;;;;;;21.73;74.55;100990.50;4956082;23;20024;-58
2023/06/20 06:06:22;;;;;;;8.65;6.70;;;;;;;21.81;74.78;100990.34;4975046;23;20326;-58
2023/06/20 06:11:22;;;;;;;7.18;5.38;;;;;;;21.91;74.83;100994.53;5280907;23;20857;-59
2023/06/20 06:13:47;;;;;;;5.65;4.97;;;;;;;21.93;74.59;100998.06;4980023;23;20046;-59
2023/06/20 06:18:48;;;;;;;6.45;4.75;;;;;;;21.99;75.16;100992.59;5060132;23;20052;-58
2023/06/20 06:26:14;;;;;;;5.47;4.85;;;;;;;22.05;75.29;100984.50;4896194;23;20165;-60
2023/06/20 06:28:39;;;;;;;5.75;4.88;;;;;;;22.08;75.34;100985.34;4855369;29;20033;-60
2023/06/20 06:31:13;;;;;;;6.27;4.87;;;;;;;22.09;74.94;100985.31;5013770;23;20128;-59
2023/06/20 06:33:40;;;;;;;6.10;5.00;;;;;;;22.10;75.13;100986.19;4975080;23;20334;-59
2023/06/20 06:38:35;;;;;;;6.35;5.28;;;;;;;22.22;74.80;100993.88;4887046;23;20049;-59
2023/06/20 06:41:01;;;;;;;5.60;4.90;;;;;;;22.32;73.73;101006.06;4886500;23;20395;-59
2023/06/20 06:43:27;;;;;;;6.50;5.35;;;;;;;22.32;73.49;100992.81;4940055;23;20509;-59
2023/06/20 06:45:52;;;;;;;6.53;5.57;;;;;;;22.26;73.39;100990.25;5207643;23;20068;-58
2023/06/20 06:50:48;;;;;;;7.75;5.75;;;;;;;22.22;74.03;100993.88;4844050;29;20053;-58
2023/06/20 06:55:52;;;;;;;7.05;5.70;;;;;;;22.25;74.48;100993.81;4843711;29;20054;-59
2023/06/20 07:00:47;;;;;;;7.30;6.22;;;;;;;22.46;73.00;100980.97;5042890;23;20495;-59
2023/06/20 07:08:22;;;;;;;5.95;5.35;;;;;;;22.83;73.20;100980.94;4884515;23;20057;-59
2023/06/20 07:10:47;;;;;;;6.28;5.60;;;;;;;22.97;74.75;100985.03;5082100;23;20548;-59
2023/06/20 07:15:48;;;;;;;6.18;5.32;;;;;;;23.19;73.82;100980.94;5061283;23;20061;-59
2023/06/20 07:18:13;;;;;;;7.68;5.10;;;;;;;23.25;70.23;100974.59;5031220;23;20061;-59
2023/06/20 07:20:38;;;;;;;6.82;4.95;;;;;;;23.34;72.83;100974.31;5011727;23;20105;-59
2023/06/20 07:23:04;;;;;;;6.95;5.00;;;;;;;23.47;69.21;100976.66;5214302;23;20087;-58
2023/06/20 07:25:29;;;;;;;6.30;4.90;;;;;;;23.55;70.28;100969.31;5158544;23;20058;-59
2023/06/20 07:30:25;;;;;;;5.82;5.22;;;;;;;23.62;69.39;100968.22;5003977;23;20150;-59
2023/06/20 07:35:26;;;;;;;5.00;4.47;;;;;;;23.84;69.88;100967.59;4949607;23;20549;-59
2023/06/20 07:37:51;;;;;;;5.33;4.80;;;;;;;23.96;69.64;100953.97;4853518;29;20031;-59
2023/06/20 07:40:16;;;;;;;6.75;5.22;;;;;;;23.95;68.58;100954.88;4915915;23;21220;-59
2023/06/20 07:45:11;;;;;;;5.20;4.70;;;;;;;24.12;67.56;100955.22;5101360;23;20065;-59
2023/06/20 07:47:36;;;;;;;5.90;4.68;;;;;;;24.22;68.98;100945.16;5033582;23;20064;-59
2023/06/20 07:50:03;;;;;;;5.03;4.53;;;;;;;24.32;68.52;100953.75;4978475;23;20066;-59
2023/06/20 07:52:30;;;;;;;4.90;4.50;;;;;;;24.45;68.03;100959.53;5235005;23;20326;-60
2023/06/20 07:57:30;;;;;;;6.28;5.00;;;;;;;24.55;67.78;100968.09;4992641;23;20113;-60
2023/06/20 07:59:56;;;;;;;5.70;5.10;;;;;;;24.53;66.33;100975.28;5057184;23;20056;-59
2023/06/20 08:02:22;;;;;;;5.90;5.07;;;;;;;24.56;66.21;100978.69;4862454;29;20464;-59
2023/06/20 08:04:47;;;;;;;6.13;4.88;;;;;;;24.56;66.33;100970.69;4860419;29;20568;-59
2023/06/20 08:07:13;;;;;;;6.05;5.22;;;;;;;24.53;65.34;100976.13;4864170;29;20066;-59
2023/06/20 08:09:38;;;;;;;6.43;5.10;;;;;;;24.56;66.68;100976.03;4864557;29;20520;-59
2023/06/20 08:12:04;;;;;;;5.45;4.55;;;;;;;24.65;67.28;100965.13;4863630;29;20305;-59
2023/06/20 08:14:29;;;;;;;5.47;4.70;;;;;;;24.68;66.27;100961.47;4863053;29;20036;-59
2023/06/20 08:16:54;;;;;;;5.38;4.60;;;;;;;24.66;66.05;100957.97;4863906;29;20035;-61
2023/06/20 08:19:20;;;;;;;6.00;4.85;;;;;;;24.75;65.94;100964.78;4853313;29;20090;-64
2023/06/20 08:21:45;;;;;;;5.33;4.83;;;;;;;24.69;65.32;100965.88;4862924;29;20018;-64
2023/06/20 08:24:10;;;;;;;6.38;4.97;;;;;;;24.76;65.60;100955.88;4862865;29;20651;-64
2023/06/20 08:26:35;;;;;;;5.68;4.90;;;;;;;24.85;66.34;100957.38;4864587;29;20021;-64
2023/06/20 08:29:01;;;;;;;5.53;5.03;;;;;;;24.92;65.49;100954.44;4864084;29;20080;-64
2023/06/20 08:31:36;;;;;;;5.50;5.00;;;;;;;24.99;65.94;100960.44;4859458;29;20372;-64
2023/06/20 08:34:04;;;;;;;6.25;5.22;;;;;;;25.07;66.85;100965.47;4862565;29;20331;-64
2023/06/20 08:36:32;;;;;;;5.20;4.70;;;;;;;25.14;65.23;100967.00;5028601;23;21509;-59
2023/06/20 08:38:58;;;;;;;5.40;4.60;;;;;;;25.31;64.75;100966.44;4858972;29;20199;-60
2023/06/20 08:41:26;;;;;;;4.88;4.35;;;;;;;25.39;63.71;100964.38;4864090;29;20925;-59
2023/06/20 08:43:52;;;;;;;6.20;4.43;;;;;;;25.43;64.05;100957.13;4864140;29;20033;-59
2023/06/20 08:46:18;;;;;;;5.35;4.63;;;;;;;25.50;63.60;100958.63;4863654;29;20036;-59
2023/06/20 08:48:43;;;;;;;6.03;4.28;;;;;;;25.80;64.46;100958.44;4864291;29;20044;-59
2023/06/20 08:51:14;;;;;;;4.32;3.92;;;;;;;25.95;61.33;100964.97;4863057;29;20170;-60
2023/06/20 08:53:42;;;;;;;6.32;3.80;;;;;;;25.99;61.40;100961.25;4858506;29;20097;-60
2023/06/20 08:56:08;;;;;;;4.20;3.67;;;;;;;26.00;60.61;100957.69;4864313;29;20029;-60
2023/06/20 08:58:33;;;;;;;4.20;3.80;;;;;;;26.04;61.27;100951.28;4864711;29;20410;-60
2023/06/20 09:00:58;;;;;;;4.80;3.60;;;;;;;26.01;60.76;100946.94;4863536;29;20056;-60
2023/06/20 09:03:24;;;;;;;4.25;3.28;;;;;;;25.92;59.77;100949.06;4864219;29;20668;-59
2023/06/20 09:05:49;;;;;;;4.93;3.78;;;;;;;25.77;61.16;100950.53;4864408;29;20085;-60
2023/06/20 09:08:15;;;;;;;4.43;4.00;;;;;;;25.81;61.99;100947.69;4861521;29;20037;-60
2023/06/20 09:10:40;;;;;;;4.68;3.60;;;;;;;26.15;61.74;100949.06;4864090;29;20341;-60
2023/06/20 09:13:06;;;;;;;4.40;3.80;;;;;;;26.22;59.24;100947.00;4863736;29;20493;-59
2023/06/20 09:15:33;;;;;;;4.72;3.78;;;;;;;26.28;59.58;100946.75;4863854;29;20028;-60
2023/06/20 09:18:00;;;;;;;5.35;3.75;;;;;;;26.36;58.96;100952.66;4863611;29;20486;-59
2023/06/20 09:20:30;;;;;;;4.30;3.83;;;;;;;26.51;58.70;100948.50;4857253;29;21673;-60
2023/06/20 09:22:56;;;;;;;4.25;3.70;;;;;;;26.52;58.23;100957.41;4859903;29;20112;-59
2023/06/20 09:25:25;;;;;;;4.32;3.65;;;;;;;26.47;57.86;100962.03;4859046;29;20104;-59
2023/06/20 09:27:51;;;;;;;4.60;3.60;;;;;;;26.68;58.30;100954.97;4862097;29;20022;-67
2023/06/20 09:30:17;;;;;;;4.00;3.50;;;;;;;26.73;58.13;100964.53;4861955;29;20757;-66
2023/06/20 09:32:43;;;;;;;4.13;3.63;;;;;;;26.72;60.63;100965.47;4863357;29;20124;-66
2023/06/20 09:35:16;;;;;;;4.70;4.03;;;;;;;26.58;58.13;100965.16;4860867;29;20182;-65
2023/06/20 09:37:47;;;;;;;4.60;3.67;;;;;;;26.83;58.43;100961.47;4922896;23;20057;-60
2023/06/20 09:40:14;;;;;;;4.38;3.88;;;;;;;26.97;57.67;100956.41;4859980;29;20148;-59
2023/06/20 09:42:41;;;;;;;4.53;3.90;;;;;;;27.13;56.36;100956.59;4861650;29;20100;-59
2023/06/20 09:45:08;;;;;;;5.03;3.65;;;;;;;27.16;57.74;100955.59;4861162;29;20029;-59
2023/06/20 09:47:36;;;;;;;4.60;3.80;;;;;;;27.22;56.33;100960.69;4859066;29;20129;-60
2023/06/20 09:50:13;;;;;;;4.50;3.80;;;;;;;27.30;56.66;100955.88;4858379;29;20097;-60
2023/06/20 09:52:44;;;;;;;4.03;3.63;;;;;;;27.54;55.78;100950.34;4900398;23;20829;-60
2023/06/20 09:55:11;;;;;;;3.63;3.03;;;;;;;27.94;53.31;100948.50;5088897;23;20979;-60
2023/06/20 10:07:42;;;;;;;5.32;3.30;;;;;;;27.58;53.73;100957.31;5255712;23;20050;-60
2023/06/20 10:12:35;;;;;;;3.60;3.08;;;;;;;27.58;52.70;100941.25;5140448;23;20045;-60
2023/06/20 10:17:39;;;;;;;4.30;3.53;;;;;;;27.73;53.28;100943.19;5138119;23;20082;-61
2023/06/20 10:20:08;;;;;;;3.80;3.30;;;;;;;28.07;52.96;100943.47;4981376;23;20061;-60
2023/06/20 10:22:37;;;;;;;4.20;3.45;;;;;;;27.97;52.66;100934.06;4857427;29;20040;-60
2023/06/20 10:27:35;;;;;;;4.97;3.45;;;;;;;28.18;52.49;100927.72;5166631;23;20147;-61
2023/06/20 10:30:00;;;;;;;3.92;3.17;;;;;;;28.35;52.69;100920.66;4920943;23;20045;-66
2023/06/20 10:32:26;;;;;;;4.25;3.22;;;;;;;28.77;52.46;100914.09;4850774;29;20035;-66
2023/06/20 10:34:52;;;;;;;3.53;3.22;;;;;;;28.95;50.43;100904.22;5027041;23;20034;-61
2023/06/20 10:37:20;;;;;;;3.90;3.10;;;;;;;29.08;50.25;100902.63;5084865;23;20478;-61
2023/06/20 10:39:55;;;;;;;5.85;3.17;;;;;;;29.25;49.22;100906.25;5072423;23;20166;-61
2023/06/20 10:45:20;;;;;;;7.45;2.92;;;;;;;29.47;48.51;100903.25;5235446;23;20045;-62
2023/06/20 10:47:46;;;;;;;3.60;2.40;;;;;;;29.59;48.27;100899.91;4967344;23;20137;-60
2023/06/20 10:50:13;;;;;;;5.28;2.92;;;;;;;29.67;48.00;100894.09;4969539;23;20061;-62
2023/06/20 10:55:15;;;;;;;4.82;2.70;;;;;;;30.24;48.65;100887.31;5012463;23;20061;-61
2023/06/20 11:02:48;;;;;;;3.15;2.55;;;;;;;29.64;44.36;100891.59;4870569;23;20434;-61
2023/06/20 11:05:14;;;;;;;3.42;2.35;;;;;;;29.46;45.38;100885.41;5048905;23;20061;-61
2023/06/20 11:10:20;;;;;;;3.78;2.42;;;;;;;30.08;48.20;100868.53;5168047;23;20068;-60
2023/06/20 11:12:45;;;;;;;3.00;2.42;;;;;;;30.16;42.73;100864.44;5197830;23;20069;-61
2023/06/20 11:20:20;;;;;;;2.75;2.20;;;;;;;30.05;43.96;100874.94;4975354;23;20060;-59
2023/06/20 11:22:47;;;;;;;3.22;2.38;;;;;;;30.16;44.53;100868.97;5041838;23;21765;-61
2023/06/20 11:25:21;;;;;;;3.17;2.20;;;;;;;30.35;44.78;100853.47;5226663;23;20166;-60
2023/06/20 11:27:46;;;;;;;3.20;2.17;;;;;;;30.24;42.34;100857.75;4982402;23;20056;-60
2023/06/20 11:30:12;;;;;;;3.50;2.45;;;;;;;30.48;43.63;100858.16;4957998;23;1068509;-60
2023/06/20 11:35:13;;;;;;;3.90;2.58;;;;;;;31.18;42.85;100861.06;5020350;23;20061;-61
2023/06/20 11:37:40;;;;;;;3.80;2.60;;;;;;;31.44;41.02;100854.97;4853409;29;20121;-60
2023/06/20 11:40:11;;;;;;;4.00;2.72;;;;;;;31.37;41.64;100855.38;4854360;29;20038;-61
2023/06/20 11:50:21;;;;;;;3.00;2.30;;;;;;;31.54;39.62;100850.72;5012927;23;19931;-61
2023/06/20 11:52:55;;;;;;;4.53;2.70;;;;;;;31.31;41.18;100850.34;4953052;23;20092;-61
2023/06/20 11:57:50;;;;;;;3.75;2.50;;;;;;;31.90;40.84;100843.91;4902552;23;20140;-61
2023/06/20 12:02:49;;;;;;;3.28;2.30;;;;;;;32.60;37.69;100840.09;5167941;23;20337;-61
2023/06/20 12:07:49;;;;;;;3.30;2.50;;;;;;;31.86;39.52;100843.25;5149899;23;20640;-62
2023/06/20 12:10:14;;;;;;;3.40;2.50;;;;;;;31.86;39.47;100840.53;4936768;23;20525;-62
2023/06/20 12:12:43;;;;;;;3.35;2.40;;;;;;;32.08;37.12;100842.69;5008475;23;20057;-61
2023/06/20 12:15:10;;;;;;;;;;;;;;;32.29;38.39;100842.22;4857158;29;20039;-62
2023/06/20 12:20:05;;;;;;;3.13;2.60;;;;;;;32.13;38.92;100838.84;4844141;29;20053;-61
2023/06/20 12:22:30;;;;;;;4.07;2.33;;;;;;;32.27;36.84;100844.19;4995376;23;20320;-61
2023/06/20 12:24:56;;;;;;;3.72;2.40;;;;;;;31.76;37.33;100852.03;5031575;23;20148;-62
2023/06/20 12:27:21;;;;;;;3.50;2.47;;;;;;;31.68;38.70;100837.25;5234632;23;20088;-61
2023/06/20 12:29:46;;;;;;;4.90;2.40;;;;;;;31.54;39.11;100835.41;5208861;23;21003;-61
2023/06/20 12:34:42;;;;;;;2.70;2.40;;;;;;;31.58;39.96;100838.81;5102088;23;20992;-62
2023/06/20 12:37:08;;;;;;;2.95;2.50;;;;;;;31.78;39.88;100833.94;4979878;23;20724;-61
2023/06/20 12:39:35;;;;;;;3.40;2.57;;;;;;;31.80;39.42;100829.31;5238538;23;20041;-61
2023/06/20 12:42:00;;;;;;;3.67;2.33;;;;;;;31.53;39.63;100831.00;4858552;29;20302;-60
2023/06/20 12:44:26;;;;;;;3.60;2.50;;;;;;;31.44;41.50;100818.13;5014118;23;20060;-60
2023/06/20 12:49:23;;;;;;;5.88;2.50;;;;;;;31.60;38.45;100820.72;5042200;23;20065;-60
2023/06/20 12:51:48;;;;;;;3.10;2.70;;;;;;;31.65;38.73;100817.75;5023014;23;20403;-60
2023/06/20 12:54:13;;;;;;;3.72;2.50;;;;;;;31.38;39.12;100822.06;4980628;23;20322;-61
2023/06/20 12:56:41;;;;;;;4.15;2.60;;;;;;;31.35;40.61;100816.88;5083245;23;20057;-60
2023/06/20 12:59:06;;;;;;;3.25;2.67;;;;;;;31.21;39.78;100822.28;4852835;29;20066;-60
2023/06/20 13:01:32;;;;;;;3.15;2.58;;;;;;;31.06;40.00;100817.91;4853254;29;20067;-62
2023/06/20 13:03:57;;;;;;;3.15;2.60;;;;;;;31.08;40.61;100815.97;5031738;23;20590;-62
2023/06/20 13:06:23;;;;;;;3.53;2.80;;;;;;;31.03;40.08;100819.81;4839054;29;20109;-62
2023/06/20 13:08:48;;;;;;;3.80;2.75;;;;;;;30.97;39.13;100814.78;4991553;23;20059;-62
2023/06/20 13:13:59;;;;;;;3.45;2.60;;;;;;;31.13;39.61;100816.56;5081760;23;20065;-67
2023/06/20 13:16:24;;;;;;;3.07;2.37;;;;;;;31.31;39.42;100807.28;5028959;23;20610;-69
2023/06/20 13:18:52;;;;;;;4.60;2.80;;;;;;;31.21;38.62;100793.56;4978079;23;20345;-62
2023/06/20 13:21:16;;;;;;;3.03;2.33;;;;;;;31.08;40.22;100783.66;5106187;23;20750;-61
2023/06/20 13:23:43;;;;;;;4.32;2.80;;;;;;;31.28;41.38;100779.69;4858229;29;20037;-61
2023/06/20 13:26:09;;;;;;;3.78;2.63;;;;;;;31.32;38.86;100775.84;5165117;23;20041;-62
2023/06/20 13:30:59;;;;;;;3.40;2.60;;;;;;;31.53;39.08;100774.44;5087511;23;20119;-60
2023/06/20 13:33:25;;;;;;;4.20;2.88;;;;;;;31.56;38.58;100768.00;4846341;29;20124;-62
2023/06/20 13:35:50;;;;;;;3.08;2.60;;;;;;;31.44;38.43;100768.78;5039062;23;20155;-62
2023/06/20 13:38:15;;;;;;;4.28;2.92;;;;;;;31.14;38.77;100761.75;4979559;23;20073;-63
2023/06/20 13:40:41;;;;;;;3.93;2.87;;;;;;;31.21;40.32;100757.69;4846092;29;20450;-62
2023/06/20 13:43:08;;;;;;;5.72;3.08;;;;;;;31.13;39.46;100755.50;4936002;23;20330;-62
2023/06/20 13:48:05;;;;;;;3.40;2.75;;;;;;;31.35;39.48;100757.66;4944171;23;20041;-60
2023/06/20 13:53:04;;;;;;;4.57;2.72;;;;;;;31.72;37.73;100746.31;5218473;23;20063;-60
2023/06/20 13:55:31;;;;;;;3.28;2.88;;;;;;;31.70;38.61;100749.09;4953906;23;20065;-60
2023/06/20 13:57:57;;;;;;;3.55;2.50;;;;;;;31.83;38.20;100753.66;5005336;23;20089;-60
2023/06/20 14:07:57;;;;;;;4.95;2.83;;;;;;;31.18;39.37;100737.25;5006708;23;20581;-60
2023/06/20 14:10:22;;;;;;;3.90;3.00;;;;;;;31.04;40.07;100738.13;5153149;23;20061;-61
2023/06/20 14:15:18;;;;;;;3.88;2.88;;;;;;;30.96;40.44;100728.78;5050670;23;20377;-60
2023/06/20 14:20:18;;;;;;;3.97;2.92;;;;;;;30.76;39.61;100730.03;5099048;23;20114;-59
2023/06/20 14:22:43;;;;;;;5.45;2.90;;;;;;;30.62;40.30;100728.22;5108975;23;20069;-61
2023/06/20 14:25:08;;;;;;;5.50;3.05;;;;;;;30.40;41.30;100725.97;5143212;23;20086;-60
2023/06/20 14:27:34;;;;;;;4.95;2.90;;;;;;;30.29;41.09;100722.13;5204783;23;20364;-60
2023/06/20 14:30:00;;;;;;;4.22;2.95;;;;;;;30.14;41.97;100732.00;4848929;29;20544;-61
2023/06/20 14:32:26;;;;;;;5.38;2.88;;;;;;;30.04;41.99;100732.63;4845598;29;20033;-60
2023/06/20 14:34:51;;;;;;;4.33;2.83;;;;;;;30.03;42.12;100725.53;4882970;23;20065;-61
2023/06/20 14:39:56;;;;;;;4.93;3.28;;;;;;;29.93;42.22;100709.09;4901048;23;20875;-61
2023/06/20 14:42:21;;;;;;;4.50;3.23;;;;;;;29.96;42.76;100706.22;4828790;29;20026;-60
2023/06/20 14:47:16;;;;;;;3.83;3.20;;;;;;;29.91;43.39;100701.13;5277563;23;20073;-60
2023/06/20 14:52:16;;;;;;;4.43;3.40;;;;;;;29.92;43.86;100713.59;5175387;23;20065;-61
2023/06/20 14:54:42;;;;;;;3.63;3.15;;;;;;;29.88;43.84;100717.44;5263190;23;20065;-60